Time;durP1;ratioP1;P1;durP2;ratioP2;P2;SDS_P1;SDS_P2;PMS_P1;PMS_P2;Temp;Humidity;BMP_temperature;BMP_pressure;BME280_temperature;BME280_humidity;BME280_pressure;Samples;Min_cycle;Max_cycle;Signal;HPM_P1;HPM_P2
2022/06/29 00:02:10;;;;;;;6.78;5.68;;;;;;;;;;5014874;28;20356;-70
2022/06/29 00:04:35;;;;;;;7.18;5.90;;;;;;;;;;5017413;28;20128;-69
2022/06/29 00:07:00;;;;;;;12.73;7.10;;;;;;;;;;5011978;28;20029;-70
2022/06/29 00:09:26;;;;;;;7.40;6.55;;;;;;;;;;5020673;28;20536;-69
2022/06/29 00:11:51;;;;;;;7.57;6.70;;;;;;;;;;5021857;28;20377;-70
2022/06/29 00:14:16;;;;;;;10.65;7.40;;;;;;;;;;5023273;28;20032;-69
2022/06/29 00:16:42;;;;;;;11.63;7.18;;;;;;;;;;5018321;28;20017;-77
2022/06/29 00:19:07;;;;;;;9.43;7.32;;;;;;;;;;5019642;28;20479;-72
2022/06/29 00:21:33;;;;;;;12.68;7.38;;;;;;;;;;5011412;28;20650;-72
2022/06/29 00:23:59;;;;;;;7.40;6.40;;;;;;;;;;5017393;28;20348;-70
2022/06/29 00:26:25;;;;;;;8.85;7.30;;;;;;;;;;5017689;28;20037;-70
2022/06/29 00:28:50;;;;;;;9.75;7.10;;;;;;;;;;5016756;28;20025;-73
2022/06/29 00:31:16;;;;;;;8.45;6.47;;;;;;;;;;5019341;28;20400;-70
2022/06/29 00:33:41;;;;;;;8.48;4.97;;;;;;;;;;5019247;28;20032;-72
2022/06/29 00:36:06;;;;;;;10.70;5.72;;;;;;;;;;5012275;28;20022;-70
2022/06/29 00:38:32;;;;;;;6.60;6.00;;;;;;;;;;5018005;28;20030;-73
2022/06/29 00:40:57;;;;;;;9.00;6.57;;;;;;;;;;5010722;28;20097;-70
2022/06/29 00:43:24;;;;;;;7.60;5.65;;;;;;;;;;4992364;28;20398;-80
2022/06/29 00:45:50;;;;;;;7.10;6.30;;;;;;;;;;4991877;28;20091;-75
2022/06/29 00:48:16;;;;;;;6.53;5.93;;;;;;;;;;4998551;28;20425;-76
2022/06/29 00:50:42;;;;;;;5.63;5.13;;;;;;;;;;4997358;28;20036;-77
2022/06/29 00:53:09;;;;;;;6.18;5.65;;;;;;;;;;4998713;28;20026;-77
2022/06/29 00:55:36;;;;;;;6.03;5.43;;;;;;;;;;4990742;28;20037;-73
2022/06/29 00:58:05;;;;;;;9.20;6.03;;;;;;;;;;4997287;28;20040;-70
2022/06/29 01:00:32;;;;;;;5.68;5.18;;;;;;;;;;4996343;28;20484;-71
2022/06/29 01:03:00;;;;;;;6.05;5.15;;;;;;;;;;4999100;28;20044;-73
2022/06/29 01:05:26;;;;;;;5.43;5.00;;;;;;;;;;4992250;28;20156;-70
2022/06/29 01:07:52;;;;;;;7.15;5.45;;;;;;;;;;4998873;28;20330;-69
2022/06/29 01:10:19;;;;;;;7.40;5.30;;;;;;;;;;4994985;28;20128;-77
2022/06/29 01:12:47;;;;;;;5.53;5.00;;;;;;;;;;4997688;28;20026;-73
2022/06/29 01:15:12;;;;;;;5.13;4.68;;;;;;;;;;4997221;28;20037;-69
2022/06/29 01:17:37;;;;;;;6.88;4.57;;;;;;;;;;4998894;28;20029;-74
2022/06/29 01:20:03;;;;;;;5.72;5.10;;;;;;;;;;4995193;28;20033;-72
2022/06/29 01:22:29;;;;;;;6.90;4.80;;;;;;;;;;4996755;28;20034;-71
2022/06/29 01:24:54;;;;;;;10.73;4.65;;;;;;;;;;4996692;28;21209;-70
2022/06/29 01:27:20;;;;;;;5.43;4.45;;;;;;;;;;4992934;28;20037;-75
2022/06/29 01:29:45;;;;;;;5.85;4.50;;;;;;;;;;4990623;28;20088;-69
2022/06/29 01:32:11;;;;;;;7.75;5.00;;;;;;;;;;4996680;28;20046;-75
2022/06/29 01:34:37;;;;;;;6.38;5.18;;;;;;;;;;4992978;28;20033;-69
2022/06/29 01:37:02;;;;;;;5.43;4.72;;;;;;;;;;4996258;28;20065;-71
2022/06/29 01:39:28;;;;;;;5.18;4.60;;;;;;;;;;4990755;28;20057;-79
2022/06/29 01:41:54;;;;;;;9.18;4.63;;;;;;;;;;5007546;28;20049;-70
2022/06/29 01:44:19;;;;;;;7.38;5.97;;;;;;;;;;5008561;28;21429;-74
2022/06/29 01:46:45;;;;;;;9.82;5.18;;;;;;;;;;5017986;28;20480;-69
2022/06/29 01:49:10;;;;;;;6.55;5.40;;;;;;;;;;5016383;28;20033;-70
2022/06/29 01:51:35;;;;;;;10.15;5.63;;;;;;;;;;5011979;28;20025;-70
2022/06/29 01:54:01;;;;;;;5.10;4.60;;;;;;;;;;5016884;28;20033;-70
2022/06/29 01:56:26;;;;;;;5.55;4.22;;;;;;;;;;5017459;28;20116;-75
2022/06/29 01:58:52;;;;;;;4.93;4.47;;;;;;;;;;5012056;28;20037;-73
2022/06/29 02:01:17;;;;;;;6.25;5.60;;;;;;;;;;5008248;28;20148;-70
2022/06/29 02:03:44;;;;;;;9.77;5.63;;;;;;;;;;5016810;28;20025;-75
2022/06/29 02:06:09;;;;;;;5.90;5.03;;;;;;;;;;5020739;28;20472;-69
2022/06/29 02:08:35;;;;;;;6.03;4.60;;;;;;;;;;5016237;28;20080;-76
2022/06/29 02:11:01;;;;;;;5.65;4.63;;;;;;;;;;5010316;28;20029;-71
2022/06/29 02:13:26;;;;;;;7.25;5.60;;;;;;;;;;5019321;28;20347;-70
2022/06/29 02:15:51;;;;;;;6.20;5.30;;;;;;;;;;5006194;28;20052;-69
2022/06/29 02:18:17;;;;;;;5.30;4.55;;;;;;;;;;5017940;28;20464;-73
2022/06/29 02:20:42;;;;;;;6.30;5.45;;;;;;;;;;5020971;28;20033;-69
2022/06/29 02:23:08;;;;;;;4.75;4.35;;;;;;;;;;5015600;28;20420;-77
2022/06/29 02:25:33;;;;;;;6.32;5.70;;;;;;;;;;5009062;28;20067;-73
2022/06/29 02:27:58;;;;;;;7.43;5.03;;;;;;;;;;5020946;28;20037;-71
2022/06/29 02:34:43;;;;;;;10.55;6.07;;;;;;;;;;5009682;28;20461;-71
2022/06/29 02:35:53;;;;;;;7.22;6.53;;;;;;;;;;5008585;28;20048;-77
2022/06/29 02:38:18;;;;;;;24.08;7.35;;;;;;;;;;5015535;28;20029;-74
2022/06/29 02:40:44;;;;;;;15.25;6.75;;;;;;;;;;5019735;28;20061;-78
2022/06/29 02:43:10;;;;;;;14.05;6.13;;;;;;;;;;5020831;28;20504;-71
2022/06/29 02:45:35;;;;;;;6.50;5.53;;;;;;;;;;5019752;28;20022;-70
2022/06/29 02:48:01;;;;;;;7.55;5.60;;;;;;;;;;5021841;28;20032;-70
2022/06/29 02:50:26;;;;;;;12.07;6.00;;;;;;;;;;5021588;28;20030;-76
2022/06/29 02:52:51;;;;;;;5.97;5.32;;;;;;;;;;5020119;28;20026;-78
2022/06/29 02:55:17;;;;;;;9.60;6.32;;;;;;;;;;5021614;28;20141;-72
2022/06/29 02:57:42;;;;;;;9.73;6.28;;;;;;;;;;5021315;28;20029;-73
2022/06/29 03:00:08;;;;;;;7.70;5.50;;;;;;;;;;5010306;28;20371;-77
2022/06/29 03:02:33;;;;;;;6.78;5.53;;;;;;;;;;5021145;28;20036;-74
2022/06/29 03:04:59;;;;;;;6.43;5.82;;;;;;;;;;5021864;28;20037;-70
2022/06/29 03:07:25;;;;;;;6.90;5.32;;;;;;;;;;5023156;28;20105;-70
2022/06/29 03:09:50;;;;;;;4.85;4.18;;;;;;;;;;5014065;28;20044;-69
2022/06/29 03:12:16;;;;;;;5.22;4.82;;;;;;;;;;5017802;28;20060;-74
2022/06/29 03:14:41;;;;;;;5.43;4.93;;;;;;;;;;5022781;28;20048;-71
2022/06/29 03:17:06;;;;;;;14.68;6.78;;;;;;;;;;5014997;28;20421;-69
2022/06/29 03:19:32;;;;;;;11.27;7.43;;;;;;;;;;5025196;28;20029;-79
2022/06/29 03:21:57;;;;;;;7.15;6.45;;;;;;;;;;5024611;28;20112;-69
2022/06/29 03:24:23;;;;;;;7.60;6.90;;;;;;;;;;5024225;28;20025;-73
2022/06/29 03:26:48;;;;;;;7.90;5.88;;;;;;;;;;5025116;28;20364;-70
2022/06/29 03:29:14;;;;;;;5.68;5.15;;;;;;;;;;5007887;28;20033;-69
2022/06/29 03:31:39;;;;;;;12.73;7.80;;;;;;;;;;5025870;28;20035;-69
2022/06/29 03:34:05;;;;;;;11.82;8.30;;;;;;;;;;5017496;28;20068;-74
2022/06/29 03:36:30;;;;;;;12.20;8.27;;;;;;;;;;5019648;28;20040;-71
2022/06/29 03:38:56;;;;;;;7.90;6.72;;;;;;;;;;5024892;28;20068;-75
2022/06/29 03:41:21;;;;;;;7.80;7.00;;;;;;;;;;5021902;28;20074;-72
2022/06/29 03:43:46;;;;;;;10.88;7.47;;;;;;;;;;5016609;28;20395;-76
2022/06/29 03:46:12;;;;;;;9.57;6.90;;;;;;;;;;5008983;28;20025;-73
2022/06/29 03:48:37;;;;;;;9.07;6.40;;;;;;;;;;5007921;28;20384;-71
2022/06/29 03:51:02;;;;;;;8.82;6.93;;;;;;;;;;5007876;28;20033;-68
2022/06/29 03:53:28;;;;;;;8.65;6.57;;;;;;;;;;5018493;28;20040;-69
2022/06/29 03:55:53;;;;;;;10.93;5.68;;;;;;;;;;5009401;28;20021;-68
2022/06/29 03:58:19;;;;;;;8.05;4.68;;;;;;;;;;5009878;28;20116;-80
2022/06/29 04:00:44;;;;;;;8.43;4.88;;;;;;;;;;5008362;28;20455;-74
2022/06/29 04:03:09;;;;;;;6.43;5.10;;;;;;;;;;5010173;28;20083;-80
2022/06/29 04:05:35;;;;;;;12.68;5.00;;;;;;;;;;5008717;28;20033;-74
2022/06/29 04:08:00;;;;;;;6.05;4.50;;;;;;;;;;5010473;28;20034;-70
2022/06/29 04:10:25;;;;;;;4.93;4.50;;;;;;;;;;5009508;28;20025;-78
2022/06/29 04:12:51;;;;;;;6.80;4.68;;;;;;;;;;5015847;28;20479;-72
2022/06/29 04:15:16;;;;;;;5.82;4.88;;;;;;;;;;5009515;28;20021;-69
2022/06/29 04:17:41;;;;;;;6.97;5.50;;;;;;;;;;5004807;28;20045;-70
2022/06/29 04:20:07;;;;;;;8.07;4.75;;;;;;;;;;5008637;28;20401;-68
2022/06/29 04:22:33;;;;;;;9.93;3.50;;;;;;;;;;5016110;28;20033;-69
2022/06/29 04:24:59;;;;;;;7.10;3.97;;;;;;;;;;5021539;28;20136;-70
2022/06/29 04:27:24;;;;;;;6.38;4.50;;;;;;;;;;5017742;28;20743;-69
2022/06/29 04:29:50;;;;;;;4.47;4.07;;;;;;;;;;5022216;28;20401;-74
2022/06/29 04:32:15;;;;;;;5.53;5.00;;;;;;;;;;5021267;28;20091;-73
2022/06/29 04:34:40;;;;;;;8.32;5.20;;;;;;;;;;5019500;28;20033;-67
2022/06/29 04:37:06;;;;;;;5.82;5.15;;;;;;;;;;5019624;28;20460;-71
2022/06/29 04:39:31;;;;;;;6.70;5.10;;;;;;;;;;5008563;28;20487;-69
2022/06/29 04:41:57;;;;;;;11.00;6.38;;;;;;;;;;5004320;28;20432;-67
2022/06/29 04:44:23;;;;;;;11.48;7.43;;;;;;;;;;5006455;28;20429;-67
2022/06/29 04:46:48;;;;;;;7.55;6.75;;;;;;;;;;5014019;28;20075;-78
2022/06/29 04:49:14;;;;;;;9.15;6.85;;;;;;;;;;5020979;28;20021;-71
2022/06/29 04:51:39;;;;;;;7.85;5.97;;;;;;;;;;5006355;28;20356;-69
2022/06/29 04:54:05;;;;;;;7.13;5.57;;;;;;;;;;5007695;28;20112;-74
2022/06/29 04:56:31;;;;;;;5.22;4.75;;;;;;;;;;5009198;28;20356;-69
2022/06/29 04:58:57;;;;;;;6.63;6.03;;;;;;;;;;5006430;28;20022;-72
2022/06/29 05:01:23;;;;;;;6.07;5.57;;;;;;;;;;5007065;28;20037;-78
2022/06/29 05:03:49;;;;;;;6.50;5.90;;;;;;;;;;5007839;28;20029;-77
2022/06/29 05:06:14;;;;;;;6.28;5.72;;;;;;;;;;5011841;28;20044;-69
2022/06/29 05:08:40;;;;;;;10.30;6.60;;;;;;;;;;5015185;28;20116;-69
2022/06/29 05:11:05;;;;;;;8.27;6.25;;;;;;;;;;5010546;28;20033;-68
2022/06/29 05:13:30;;;;;;;6.85;6.25;;;;;;;;;;5019343;28;20036;-69
2022/06/29 05:15:56;;;;;;;14.77;7.10;;;;;;;;;;5015978;28;20022;-69
2022/06/29 05:18:21;;;;;;;7.60;5.97;;;;;;;;;;5018503;28;20112;-68
2022/06/29 05:20:47;;;;;;;6.57;5.60;;;;;;;;;;5019581;28;20038;-76
2022/06/29 05:23:12;;;;;;;6.15;5.65;;;;;;;;;;5015599;28;20029;-77
2022/06/29 05:25:39;;;;;;;6.47;5.97;;;;;;;;;;5018193;28;20547;-72
2022/06/29 05:28:04;;;;;;;6.22;5.18;;;;;;;;;;5019245;28;20057;-70
2022/06/29 05:30:30;;;;;;;8.50;5.75;;;;;;;;;;5018666;28;20128;-69
2022/06/29 05:32:55;;;;;;;6.68;5.95;;;;;;;;;;5014641;28;20889;-70
2022/06/29 05:35:21;;;;;;;5.60;5.10;;;;;;;;;;5016128;28;20029;-69
2022/06/29 05:37:46;;;;;;;9.75;5.32;;;;;;;;;;5015491;28;20044;-72
2022/06/29 05:40:11;;;;;;;6.63;5.80;;;;;;;;;;5005911;28;20029;-75
2022/06/29 05:42:37;;;;;;;6.90;5.50;;;;;;;;;;5018148;28;20029;-74
2022/06/29 05:45:02;;;;;;;8.80;5.82;;;;;;;;;;5017881;28;20441;-69
2022/06/29 05:47:28;;;;;;;6.53;5.88;;;;;;;;;;5015713;28;20030;-71
2022/06/29 05:49:55;;;;;;;6.07;5.55;;;;;;;;;;5013487;28;20046;-73
2022/06/29 05:52:21;;;;;;;11.02;6.20;;;;;;;;;;5005484;28;20032;-76
2022/06/29 05:54:46;;;;;;;6.25;4.78;;;;;;;;;;5003902;28;20021;-80
2022/06/29 05:57:11;;;;;;;5.75;5.25;;;;;;;;;;5020125;28;20044;-78
2022/06/29 05:59:37;;;;;;;6.03;5.43;;;;;;;;;;5018202;28;20461;-74
2022/06/29 06:02:02;;;;;;;5.93;5.30;;;;;;;;;;5020651;28;20337;-78
2022/06/29 06:04:28;;;;;;;6.35;5.72;;;;;;;;;;5019309;28;20022;-69
2022/06/29 06:06:53;;;;;;;8.27;5.63;;;;;;;;;;5016896;28;20084;-68
2022/06/29 06:09:22;;;;;;;6.75;5.28;;;;;;;;;;5019996;28;20326;-70
2022/06/29 06:11:47;;;;;;;6.20;5.55;;;;;;;;;;5020844;28;20026;-76
2022/06/29 06:14:13;;;;;;;6.00;5.50;;;;;;;;;;5019733;28;20060;-70
2022/06/29 06:16:38;;;;;;;6.10;5.60;;;;;;;;;;5020362;28;20037;-68
2022/06/29 06:19:04;;;;;;;6.40;5.85;;;;;;;;;;5021116;28;20120;-71
2022/06/29 06:21:29;;;;;;;5.65;5.25;;;;;;;;;;5017097;28;20037;-69
2022/06/29 06:23:55;;;;;;;6.70;6.10;;;;;;;;;;5015264;28;20041;-71
2022/06/29 06:26:20;;;;;;;6.18;5.45;;;;;;;;;;5017789;28;20444;-70
2022/06/29 06:28:46;;;;;;;8.43;5.97;;;;;;;;;;5018466;28;20445;-79
2022/06/29 06:31:12;;;;;;;8.07;5.43;;;;;;;;;;5016341;28;20491;-73
2022/06/29 06:33:37;;;;;;;6.28;5.32;;;;;;;;;;5020687;28;20038;-72
2022/06/29 06:36:02;;;;;;;6.43;5.30;;;;;;;;;;5018019;28;20061;-70
2022/06/29 06:38:28;;;;;;;7.22;6.53;;;;;;;;;;5017478;28;20083;-70
2022/06/29 06:43:37;;;;;;;11.80;6.50;;;;;;;;;;5023499;28;20095;-71
2022/06/29 06:46:03;;;;;;;9.73;5.15;;;;;;;;;;5024767;28;20417;-78
2022/06/29 06:48:28;;;;;;;5.63;4.90;;;;;;;;;;5035235;28;20017;-70
2022/06/29 06:50:53;;;;;;;6.13;5.18;;;;;;;;;;5022259;28;20112;-80
2022/06/29 06:53:19;;;;;;;6.32;5.53;;;;;;;;;;5022180;28;20437;-72
2022/06/29 06:55:44;;;;;;;5.28;4.78;;;;;;;;;;5023232;28;20095;-71
2022/06/29 06:58:09;;;;;;;5.70;4.38;;;;;;;;;;5035465;28;20025;-69
2022/06/29 07:00:35;;;;;;;7.53;4.65;;;;;;;;;;5021730;28;20110;-69
2022/06/29 07:03:00;;;;;;;4.65;4.18;;;;;;;;;;5011634;28;20055;-71
2022/06/29 07:05:26;;;;;;;6.57;4.68;;;;;;;;;;5007845;28;20045;-70
2022/06/29 07:07:51;;;;;;;5.13;4.72;;;;;;;;;;5008562;28;20032;-69
2022/06/29 07:10:16;;;;;;;7.22;4.70;;;;;;;;;;5009392;28;20041;-78
2022/06/29 07:12:42;;;;;;;6.78;4.78;;;;;;;;;;5006678;28;23499;-74
2022/06/29 07:15:07;;;;;;;4.80;4.40;;;;;;;;;;5009879;28;20038;-71
2022/06/29 07:17:33;;;;;;;4.78;4.38;;;;;;;;;;5010673;28;20028;-73
2022/06/29 07:19:58;;;;;;;4.22;3.80;;;;;;;;;;5021996;28;20408;-69
2022/06/29 07:22:23;;;;;;;5.00;4.20;;;;;;;;;;5018870;28;20022;-74
2022/06/29 07:24:49;;;;;;;4.45;4.15;;;;;;;;;;5023110;28;20088;-70
2022/06/29 07:27:14;;;;;;;6.68;4.20;;;;;;;;;;5031936;28;20330;-70
2022/06/29 07:29:40;;;;;;;4.38;3.97;;;;;;;;;;5021772;28;20060;-70
2022/06/29 07:32:05;;;;;;;7.10;3.95;;;;;;;;;;5021000;28;20123;-76
2022/06/29 07:34:31;;;;;;;4.55;4.03;;;;;;;;;;5020391;28;20372;-72
2022/06/29 07:36:56;;;;;;;4.40;4.03;;;;;;;;;;5023790;28;20037;-70
2022/06/29 07:39:21;;;;;;;4.63;3.92;;;;;;;;;;5017770;28;20013;-75
2022/06/29 07:41:47;;;;;;;4.00;3.70;;;;;;;;;;5020654;28;20140;-69
2022/06/29 07:44:12;;;;;;;4.05;3.63;;;;;;;;;;5024513;28;20110;-71
2022/06/29 07:46:39;;;;;;;4.45;3.78;;;;;;;;;;5022166;28;20477;-71
2022/06/29 07:49:04;;;;;;;8.65;3.58;;;;;;;;;;5018719;28;20092;-73
2022/06/29 07:51:30;;;;;;;3.58;3.33;;;;;;;;;;5018663;28;20037;-71
2022/06/29 07:53:55;;;;;;;3.60;3.40;;;;;;;;;;5020040;28;20040;-71
2022/06/29 07:56:20;;;;;;;3.78;3.47;;;;;;;;;;5020907;28;20057;-70
2022/06/29 07:58:46;;;;;;;5.72;3.55;;;;;;;;;;5020055;28;20103;-80
2022/06/29 08:01:11;;;;;;;3.72;3.45;;;;;;;;;;5018078;28;20460;-74
2022/06/29 08:03:36;;;;;;;4.95;3.67;;;;;;;;;;5019110;28;20048;-85
2022/06/29 08:06:05;;;;;;;3.40;3.10;;;;;;;;;;5018605;28;20030;-74
2022/06/29 08:08:31;;;;;;;4.10;3.60;;;;;;;;;;5014138;28;20377;-79
2022/06/29 08:10:56;;;;;;;3.88;3.50;;;;;;;;;;5016888;28;20037;-75
2022/06/29 08:13:21;;;;;;;3.60;3.08;;;;;;;;;;5019180;28;20533;-77
2022/06/29 08:15:47;;;;;;;3.75;3.45;;;;;;;;;;5017231;28;21099;-80
2022/06/29 08:18:13;;;;;;;3.92;3.50;;;;;;;;;;5016407;28;20034;-72
2022/06/29 08:20:38;;;;;;;3.22;2.92;;;;;;;;;;5017724;28;20326;-74
2022/06/29 08:23:04;;;;;;;3.40;3.10;;;;;;;;;;5013218;28;20033;-72
2022/06/29 08:25:31;;;;;;;5.88;3.67;;;;;;;;;;5018037;28;20108;-80
2022/06/29 08:27:56;;;;;;;4.03;3.40;;;;;;;;;;5016150;28;20078;-73
2022/06/29 08:30:22;;;;;;;3.28;3.00;;;;;;;;;;5015475;28;20377;-78
2022/06/29 08:32:47;;;;;;;3.20;2.90;;;;;;;;;;5018434;28;20041;-74
2022/06/29 08:35:13;;;;;;;4.32;3.10;;;;;;;;;;5018686;28;20029;-71
2022/06/29 08:37:38;;;;;;;5.60;3.28;;;;;;;;;;5015764;28;20095;-72
2022/06/29 08:40:05;;;;;;;5.80;3.45;;;;;;;;;;5019537;28;20437;-70
2022/06/29 08:42:30;;;;;;;3.50;2.90;;;;;;;;;;5020099;28;20344;-74
2022/06/29 08:44:57;;;;;;;3.85;2.90;;;;;;;;;;5015056;28;20467;-75
2022/06/29 08:47:22;;;;;;;3.00;2.80;;;;;;;;;;5016335;28;20028;-69
2022/06/29 08:49:47;;;;;;;4.22;2.70;;;;;;;;;;5010976;28;20030;-70
2022/06/29 08:52:14;;;;;;;3.00;2.70;;;;;;;;;;5006307;28;20056;-72
2022/06/29 08:54:44;;;;;;;3.30;3.00;;;;;;;;;;5006749;28;20049;-76
2022/06/29 08:57:09;;;;;;;2.83;2.63;;;;;;;;;;5006904;28;20115;-71
2022/06/29 08:59:35;;;;;;;3.65;3.35;;;;;;;;;;5004056;28;20060;-76
2022/06/29 09:02:01;;;;;;;2.97;2.63;;;;;;;;;;5007586;28;20040;-71
2022/06/29 09:04:26;;;;;;;3.50;3.20;;;;;;;;;;5004820;28;20025;-74
2022/06/29 09:06:55;;;;;;;3.28;2.70;;;;;;;;;;5006769;28;20030;-78
2022/06/29 09:09:20;;;;;;;2.60;2.40;;;;;;;;;;5008076;28;20126;-74
2022/06/29 09:11:46;;;;;;;4.28;2.70;;;;;;;;;;5006434;28;20376;-82
2022/06/29 09:14:16;;;;;;;2.40;2.20;;;;;;;;;;5006386;28;20044;-80
2022/06/29 09:16:52;;;;;;;2.80;2.60;;;;;;;;;;5008129;28;20022;-72
2022/06/29 09:19:18;;;;;;;2.50;2.30;;;;;;;;;;5005516;28;20025;-71
2022/06/29 09:21:44;;;;;;;4.68;2.33;;;;;;;;;;5008159;28;20017;-73
2022/06/29 09:24:20;;;;;;;4.15;2.20;;;;;;;;;;5014123;28;20022;-76
2022/06/29 09:26:50;;;;;;;3.22;2.17;;;;;;;;;;5014676;28;20029;-74
2022/06/29 09:29:19;;;;;;;2.97;2.35;;;;;;;;;;5006562;28;20448;-68
2022/06/29 09:32:05;;;;;;;3.65;2.75;;;;;;;;;;5013651;28;20393;-69
2022/06/29 09:34:41;;;;;;;2.83;2.35;;;;;;;;;;5008013;28;20026;-71
2022/06/29 09:37:08;;;;;;;4.15;1.98;;;;;;;;;;5028566;28;20061;-75
2022/06/29 09:39:36;;;;;;;2.75;2.13;;;;;;;;;;5019507;28;20033;-79
2022/06/29 09:42:02;;;;;;;3.95;2.17;;;;;;;;;;5017606;28;20493;-77
2022/06/29 09:44:28;;;;;;;4.47;2.10;;;;;;;;;;5018139;28;20040;-76
2022/06/29 09:46:55;;;;;;;3.97;2.80;;;;;;;;;;5017912;28;20029;-71
2022/06/29 09:49:27;;;;;;;4.95;2.45;;;;;;;;;;5016772;28;20113;-71
2022/06/29 09:51:56;;;;;;;5.22;2.97;;;;;;;;;;5019109;28;20095;-82
2022/06/29 09:54:26;;;;;;;2.60;2.40;;;;;;;;;;5017804;28;20449;-72
2022/06/29 09:56:55;;;;;;;2.50;2.30;;;;;;;;;;5018453;28;20025;-69
2022/06/29 10:02:34;;;;;;;3.30;2.58;;;;;;;;;;5021664;28;20031;-76
2022/06/29 10:05:00;;;;;;;2.88;2.63;;;;;;;;;;5013635;28;20095;-76
2022/06/29 10:07:26;;;;;;;2.30;2.10;;;;;;;;;;5009760;28;20041;-71
2022/06/29 10:09:51;;;;;;;3.78;2.45;;;;;;;;;;5011873;28;20137;-73
2022/06/29 10:15:04;;;;;;;5.15;2.47;;;;;;;;;;5008690;28;20230;-78
2022/06/29 10:17:32;;;;;;;2.88;2.50;;;;;;;;;;5006991;28;20081;-70
2022/06/29 10:20:33;;;;;;;5.25;2.75;;;;;;;;;;5005541;28;20025;-73
2022/06/29 10:22:58;;;;;;;2.58;2.40;;;;;;;;;;4923447;28;20067;-80
2022/06/29 10:25:27;;;;;;;3.50;2.03;;;;;;;;;;4929170;28;21293;-78
2022/06/29 10:28:07;;;;;;;2.65;2.45;;;;;;;;;;4922917;28;20027;-69
2022/06/29 10:30:34;;;;;;;3.55;2.80;;;;;;;;;;4935392;28;20534;-72
2022/06/29 10:33:18;;;;;;;3.22;2.92;;;;;;;;;;4923968;28;20043;-68
2022/06/29 10:36:05;;;;;;;5.82;2.33;;;;;;;;;;4922920;28;20396;-70
2022/06/29 10:38:31;;;;;;;2.60;2.40;;;;;;;;;;4918543;28;20054;-77
2022/06/29 10:41:10;;;;;;;2.92;2.40;;;;;;;;;;4929357;28;20051;-69
2022/06/29 10:43:38;;;;;;;8.73;2.88;;;;;;;;;;4938372;28;20329;-69
2022/06/29 10:46:03;;;;;;;3.95;2.38;;;;;;;;;;4917132;28;20118;-70
2022/06/29 10:48:31;;;;;;;4.70;2.17;;;;;;;;;;4921689;28;20114;-75
2022/06/29 10:50:56;;;;;;;5.57;2.75;;;;;;;;;;4936430;28;20189;-71
2022/06/29 10:53:22;;;;;;;2.85;2.38;;;;;;;;;;4940129;28;20126;-70
2022/06/29 10:55:48;;;;;;;2.50;2.30;;;;;;;;;;4938369;28;20046;-70
2022/06/29 10:58:14;;;;;;;2.78;2.50;;;;;;;;;;5018204;28;20464;-69
2022/06/29 11:00:41;;;;;;;2.83;2.53;;;;;;;;;;5017437;28;20095;-77
2022/06/29 11:03:11;;;;;;;3.00;2.80;;;;;;;;;;5017826;28;20029;-70
2022/06/29 11:05:38;;;;;;;3.75;2.70;;;;;;;;;;5018051;28;20044;-73
2022/06/29 11:13:31;;;;;;;4.25;2.53;;;;;;;;;;5014018;28;20123;-69
2022/06/29 11:15:58;;;;;;;2.67;2.47;;;;;;;;;;5016445;28;20329;-72
2022/06/29 11:18:30;;;;;;;3.00;2.58;;;;;;;;;;5017770;28;20052;-70
2022/06/29 11:21:02;;;;;;;2.72;2.28;;;;;;;;;;5017014;28;20021;-68
2022/06/29 11:23:28;;;;;;;2.70;2.50;;;;;;;;;;5017650;28;20021;-71
2022/06/29 11:25:56;;;;;;;2.75;2.40;;;;;;;;;;5017837;28;20075;-73
2022/06/29 11:28:23;;;;;;;;;;;;;;;;;;5024577;28;20121;-73
2022/06/29 11:31:01;;;;;;;6.03;2.60;;;;;;;;;;5020000;28;20019;-73
2022/06/29 11:33:37;;;;;;;3.53;3.20;;;;;;;;;;5013595;28;20046;-75
2022/06/29 11:36:03;;;;;;;5.90;2.63;;;;;;;;;;5022547;28;20716;-70
2022/06/29 11:38:29;;;;;;;3.28;2.70;;;;;;;;;;5022140;28;20128;-76
2022/06/29 11:40:54;;;;;;;9.13;2.70;;;;;;;;;;5021594;28;20042;-75
2022/06/29 11:43:20;;;;;;;3.15;2.20;;;;;;;;;;5017093;28;20021;-79
2022/06/29 11:45:47;;;;;;;2.85;2.63;;;;;;;;;;5018993;28;20713;-71
2022/06/29 11:48:14;;;;;;;2.63;2.42;;;;;;;;;;5009352;28;20100;-72
2022/06/29 11:50:45;;;;;;;3.10;2.60;;;;;;;;;;5010048;28;20064;-73
2022/06/29 11:53:10;;;;;;;3.10;2.75;;;;;;;;;;5015786;28;20048;-71
2022/06/29 11:55:43;;;;;;;4.63;2.60;;;;;;;;;;5020221;28;20029;-74
2022/06/29 11:58:10;;;;;;;4.90;2.80;;;;;;;;;;5014523;28;20324;-72
2022/06/29 12:00:37;;;;;;;3.35;2.65;;;;;;;;;;5010238;28;20216;-78
2022/06/29 12:03:03;;;;;;;2.83;2.40;;;;;;;;;;5009425;28;20360;-73
2022/06/29 12:05:28;;;;;;;4.97;2.67;;;;;;;;;;5009966;28;20848;-71
2022/06/29 12:07:54;;;;;;;4.13;2.83;;;;;;;;;;5009925;28;20082;-70
2022/06/29 12:10:19;;;;;;;3.08;2.50;;;;;;;;;;5010615;28;20318;-72
2022/06/29 12:12:44;;;;;;;2.38;2.17;;;;;;;;;;5010112;28;20041;-72
2022/06/29 12:15:10;;;;;;;3.53;2.55;;;;;;;;;;5010722;28;20133;-77
2022/06/29 12:17:37;;;;;;;2.65;2.45;;;;;;;;;;5010822;28;20441;-72
2022/06/29 12:20:02;;;;;;;3.20;2.90;;;;;;;;;;5018476;28;20041;-72
2022/06/29 12:22:28;;;;;;;2.90;2.70;;;;;;;;;;5019944;28;20032;-74
2022/06/29 12:24:53;;;;;;;3.40;2.70;;;;;;;;;;5020707;28;20475;-72
2022/06/29 12:27:18;;;;;;;3.10;2.80;;;;;;;;;;5022735;28;20069;-71
2022/06/29 12:29:44;;;;;;;5.68;2.70;;;;;;;;;;5019152;28;20056;-72
2022/06/29 12:32:09;;;;;;;4.63;2.72;;;;;;;;;;5020607;28;20041;-71
2022/06/29 12:34:34;;;;;;;2.60;2.40;;;;;;;;;;5020792;28;20018;-70
2022/06/29 12:37:01;;;;;;;2.53;2.20;;;;;;;;;;5021008;28;20511;-75
2022/06/29 12:39:26;;;;;;;2.50;2.30;;;;;;;;;;5009695;28;20057;-75
2022/06/29 12:41:53;;;;;;;4.75;2.40;;;;;;;;;;5027165;28;20092;-71
2022/06/29 12:44:18;;;;;;;2.50;2.30;;;;;;;;;;5016165;28;20057;-71
2022/06/29 12:46:43;;;;;;;3.30;2.53;;;;;;;;;;5011330;28;20067;-78
2022/06/29 12:49:09;;;;;;;3.20;2.30;;;;;;;;;;5015301;28;20659;-76
2022/06/29 12:51:34;;;;;;;4.13;2.20;;;;;;;;;;5019020;28;20091;-75
2022/06/29 12:53:59;;;;;;;3.28;2.22;;;;;;;;;;5020764;28;20468;-70
2022/06/29 12:56:25;;;;;;;2.65;2.45;;;;;;;;;;5019721;28;20817;-75
2022/06/29 12:58:50;;;;;;;7.07;2.45;;;;;;;;;;5019001;28;20036;-75
2022/06/29 13:01:16;;;;;;;7.85;2.50;;;;;;;;;;5021788;28;20029;-71
2022/06/29 13:03:41;;;;;;;2.60;2.40;;;;;;;;;;5019036;28;20686;-71
2022/06/29 13:06:06;;;;;;;2.55;2.30;;;;;;;;;;5007580;28;20025;-71
2022/06/29 13:08:32;;;;;;;2.42;2.22;;;;;;;;;;5007559;28;20113;-72
2022/06/29 13:10:59;;;;;;;2.67;2.47;;;;;;;;;;5008505;28;20404;-71
2022/06/29 13:13:25;;;;;;;2.35;2.05;;;;;;;;;;5008750;28;20025;-75
2022/06/29 13:15:50;;;;;;;3.47;2.40;;;;;;;;;;5015009;28;20029;-77
2022/06/29 13:18:16;;;;;;;2.70;2.50;;;;;;;;;;5022089;28;20220;-70
2022/06/29 13:20:41;;;;;;;5.75;2.63;;;;;;;;;;5020702;28;20034;-71
2022/06/29 13:23:06;;;;;;;2.17;2.08;;;;;;;;;;5021501;28;20108;-72
2022/06/29 13:25:32;;;;;;;2.55;2.10;;;;;;;;;;5012758;28;20103;-74
2022/06/29 13:27:57;;;;;;;3.25;2.40;;;;;;;;;;5007370;28;20025;-70
2022/06/29 13:30:22;;;;;;;3.67;2.13;;;;;;;;;;5005674;28;20121;-70
2022/06/29 13:32:48;;;;;;;3.15;2.08;;;;;;;;;;5007339;28;20491;-75
2022/06/29 13:35:13;;;;;;;5.07;2.40;;;;;;;;;;5008620;28;20029;-74
2022/06/29 13:37:39;;;;;;;2.47;2.20;;;;;;;;;;5019291;28;20069;-78
2022/06/29 13:40:04;;;;;;;4.72;2.60;;;;;;;;;;5008036;28;20072;-74
2022/06/29 13:42:30;;;;;;;3.03;2.20;;;;;;;;;;5007465;28;20441;-72
2022/06/29 13:44:55;;;;;;;8.57;2.90;;;;;;;;;;5009195;28;20033;-72
2022/06/29 13:47:21;;;;;;;3.72;2.55;;;;;;;;;;5008832;28;20075;-72
2022/06/29 13:49:46;;;;;;;2.10;2.00;;;;;;;;;;5019330;28;20033;-74
2022/06/29 13:52:11;;;;;;;4.63;2.28;;;;;;;;;;5009174;28;20026;-81
2022/06/29 13:54:40;;;;;;;3.72;2.55;;;;;;;;;;5008413;28;20040;-76
2022/06/29 13:57:05;;;;;;;4.00;2.50;;;;;;;;;;5005174;28;20043;-72
2022/06/29 13:59:31;;;;;;;4.47;2.40;;;;;;;;;;5006282;28;20346;-72
2022/06/29 14:01:56;;;;;;;4.22;2.40;;;;;;;;;;5019567;28;20053;-75
2022/06/29 14:04:21;;;;;;;3.70;2.40;;;;;;;;;;5009276;28;20091;-75
2022/06/29 14:06:47;;;;;;;3.05;2.20;;;;;;;;;;5005737;28;20413;-77
2022/06/29 14:09:12;;;;;;;3.47;2.03;;;;;;;;;;5006989;28;20087;-74
2022/06/29 14:11:37;;;;;;;2.47;2.03;;;;;;;;;;5007409;28;20033;-71
2022/06/29 14:14:04;;;;;;;3.53;2.10;;;;;;;;;;5008431;28;20269;-76
2022/06/29 14:16:29;;;;;;;3.00;2.13;;;;;;;;;;5007659;28;22786;-72
2022/06/29 14:18:55;;;;;;;3.15;2.38;;;;;;;;;;5009262;28;20029;-72
2022/06/29 14:21:20;;;;;;;2.10;2.00;;;;;;;;;;5008067;28;20052;-71
2022/06/29 14:23:46;;;;;;;3.67;2.17;;;;;;;;;;5010047;28;20021;-73
2022/06/29 14:26:13;;;;;;;3.10;2.00;;;;;;;;;;5007521;28;20032;-79
2022/06/29 14:28:38;;;;;;;2.65;2.45;;;;;;;;;;5007633;28;20670;-72
2022/06/29 14:31:04;;;;;;;4.18;2.50;;;;;;;;;;5006524;28;20044;-72
2022/06/29 14:33:29;;;;;;;2.75;2.20;;;;;;;;;;5006763;28;20029;-71
2022/06/29 14:35:55;;;;;;;2.47;1.90;;;;;;;;;;5009969;28;20460;-74
2022/06/29 14:38:20;;;;;;;3.35;2.38;;;;;;;;;;5005551;28;20089;-72
2022/06/29 14:40:46;;;;;;;2.42;2.17;;;;;;;;;;5005162;28;20076;-80
2022/06/29 14:43:11;;;;;;;4.50;2.38;;;;;;;;;;5007261;28;20045;-74
2022/06/29 14:45:36;;;;;;;5.82;2.60;;;;;;;;;;5010047;28;20037;-82
2022/06/29 14:48:02;;;;;;;4.53;2.72;;;;;;;;;;5005029;28;20029;-74
2022/06/29 14:50:27;;;;;;;3.17;2.60;;;;;;;;;;5010784;28;20037;-79
2022/06/29 14:52:53;;;;;;;2.13;2.00;;;;;;;;;;5016727;28;20432;-81
2022/06/29 14:55:18;;;;;;;2.20;2.00;;;;;;;;;;5017994;28;20033;-72